createdAt,value
2018-06-21T00:01:13.834Z,14.69
2018-06-21T00:03:42.386Z,14.64
2018-06-21T00:06:10.999Z,14.62
2018-06-21T00:08:39.630Z,14.59
2018-06-21T00:11:08.177Z,14.54
2018-06-21T00:13:36.723Z,14.47
2018-06-21T00:16:05.742Z,14.45
2018-06-21T00:18:34.407Z,14.45
2018-06-21T00:21:03.295Z,14.42
2018-06-21T00:23:32.255Z,14.42
2018-06-21T00:26:00.865Z,14.42
2018-06-21T00:28:29.528Z,14.39
2018-06-21T00:30:58.067Z,14.35
2018-06-21T00:33:26.685Z,14.30
2018-06-21T00:35:55.202Z,14.27
2018-06-21T00:38:23.851Z,14.24
2018-06-21T00:40:52.474Z,14.25
2018-06-21T00:43:21.018Z,14.27
2018-06-21T00:45:49.546Z,14.30
2018-06-21T00:48:18.118Z,14.21
2018-06-21T00:50:46.763Z,14.21
2018-06-21T00:53:15.406Z,14.21
2018-06-21T00:55:55.343Z,14.19
2018-06-21T00:58:24.031Z,14.15
2018-06-21T01:00:52.873Z,14.16
2018-06-21T01:03:21.474Z,14.16
2018-06-21T01:05:50.175Z,14.12
2018-06-21T01:08:18.824Z,14.10
2018-06-21T01:10:47.434Z,14.10
2018-06-21T01:13:16.031Z,14.07
2018-06-21T01:15:44.617Z,14.02
2018-06-21T01:18:13.294Z,13.99
2018-06-21T01:20:41.781Z,13.93
2018-06-21T01:23:10.324Z,13.88
2018-06-21T01:25:38.814Z,13.81
2018-06-21T01:28:07.308Z,13.70
2018-06-21T01:30:36.258Z,13.65
2018-06-21T01:33:04.797Z,13.65
2018-06-21T01:35:33.342Z,13.57
2018-06-21T01:38:02.024Z,13.58
2018-06-21T01:40:30.793Z,13.60
2018-06-21T01:42:59.290Z,13.59
2018-06-21T01:45:28.014Z,13.55
2018-06-21T01:47:56.612Z,13.55
2018-06-21T01:50:25.245Z,13.57
2018-06-21T01:52:53.881Z,13.60
2018-06-21T01:55:22.514Z,13.62
2018-06-21T01:57:51.096Z,13.65
2018-06-21T02:00:19.781Z,13.67
2018-06-21T02:02:48.365Z,13.67
2018-06-21T02:05:16.989Z,13.69
2018-06-21T02:07:45.633Z,13.70
2018-06-21T02:10:14.222Z,13.72
2018-06-21T02:12:42.799Z,13.74
2018-06-21T02:15:11.474Z,13.73
2018-06-21T02:17:40.186Z,13.78
2018-06-21T02:20:08.859Z,13.79
2018-06-21T02:22:37.349Z,13.79
2018-06-21T02:25:06.133Z,13.83
2018-06-21T02:27:34.650Z,13.88
2018-06-21T02:30:03.202Z,13.88
2018-06-21T02:32:32.592Z,13.88
2018-06-21T02:35:01.279Z,13.91
2018-06-21T02:37:29.958Z,13.91
2018-06-21T02:39:58.467Z,13.93
2018-06-21T02:42:27.737Z,13.91
2018-06-21T02:44:56.358Z,13.93
2018-06-21T02:47:24.931Z,13.95
2018-06-21T02:49:53.435Z,13.97
2018-06-21T02:52:22.685Z,14.00
2018-06-21T02:54:51.370Z,14.01
2018-06-21T02:57:19.953Z,13.97
2018-06-21T02:59:48.542Z,13.98
2018-06-21T03:02:17.101Z,13.88
2018-06-21T03:04:45.611Z,13.87
2018-06-21T03:07:14.286Z,13.78
2018-06-21T03:09:42.973Z,13.74
2018-06-21T03:12:17.499Z,13.67
2018-06-21T03:14:46.106Z,13.60
2018-06-21T03:17:14.802Z,13.48
2018-06-21T03:19:43.396Z,13.34
2018-06-21T03:22:12.440Z,13.30
2018-06-21T03:24:41.474Z,13.36
2018-06-21T03:27:10.506Z,13.27
2018-06-21T03:29:39.467Z,13.15
2018-06-21T03:32:08.023Z,13.17
2018-06-21T03:34:36.623Z,13.13
2018-06-21T03:37:06.194Z,13.14
2018-06-21T03:39:34.754Z,13.02
2018-06-21T03:42:04.110Z,12.88
2018-06-21T03:44:33.166Z,12.85
2018-06-21T03:47:01.798Z,12.83
2018-06-21T03:49:30.434Z,12.77
2018-06-21T03:51:58.922Z,12.69
2018-06-21T03:54:27.890Z,12.74
2018-06-21T03:56:56.491Z,12.73
2018-06-21T03:59:25.010Z,12.78
2018-06-21T04:01:53.594Z,12.75
2018-06-21T04:04:22.228Z,12.76
2018-06-21T04:06:50.741Z,12.72
2018-06-21T04:09:20.327Z,12.68
2018-06-21T04:11:49.066Z,12.59
2018-06-21T04:14:17.611Z,12.58
2018-06-21T04:16:46.381Z,12.61
2018-06-21T04:19:14.982Z,12.52
2018-06-21T04:21:43.568Z,12.56
2018-06-21T04:24:12.141Z,12.50
2018-06-21T04:26:40.815Z,12.54
2018-06-21T04:29:09.423Z,12.58
2018-06-21T04:31:37.985Z,12.57
2018-06-21T04:34:06.611Z,12.61
2018-06-21T04:36:36.210Z,12.60
2018-06-21T04:39:07.180Z,12.65
2018-06-21T04:41:35.895Z,12.64
2018-06-21T04:44:04.686Z,12.63
2018-06-21T04:46:33.294Z,12.63
2018-06-21T04:49:02.218Z,12.62
2018-06-21T04:51:30.739Z,12.63
2018-06-21T04:53:59.687Z,12.59
2018-06-21T04:56:28.274Z,12.61
2018-06-21T04:58:57.556Z,12.63
2018-06-21T05:01:26.180Z,12.58
2018-06-21T05:03:54.914Z,12.65
2018-06-21T05:06:23.575Z,12.70
2018-06-21T05:08:52.176Z,12.69
2018-06-21T05:11:21.654Z,12.66
2018-06-21T05:13:50.340Z,12.68
2018-06-21T05:16:18.870Z,12.69
2018-06-21T05:18:47.401Z,12.72
2018-06-21T05:21:15.931Z,12.72
2018-06-21T05:23:44.583Z,12.77
2018-06-21T05:26:13.364Z,12.74
2018-06-21T05:28:41.942Z,12.76
2018-06-21T05:31:10.466Z,12.78
2018-06-21T05:33:39.043Z,12.79
2018-06-21T05:36:07.615Z,12.78
2018-06-21T05:38:36.528Z,12.80
2018-06-21T05:41:05.605Z,12.85
2018-06-21T05:43:34.162Z,12.83
2018-06-21T05:46:02.751Z,12.83
2018-06-21T05:48:31.423Z,12.87
2018-06-21T05:51:00.075Z,12.94
2018-06-21T05:53:28.658Z,12.98
2018-06-21T05:55:57.155Z,13.05
2018-06-21T05:58:25.753Z,13.06
2018-06-21T06:00:54.374Z,13.12
2018-06-21T06:03:22.958Z,13.18
2018-06-21T06:05:51.604Z,13.16
2018-06-21T06:08:20.283Z,13.12
2018-06-21T06:10:48.872Z,13.09
2018-06-21T06:13:17.465Z,13.20
2018-06-21T06:15:46.016Z,13.33
2018-06-21T06:18:14.678Z,13.37
2018-06-21T06:20:43.198Z,13.43
2018-06-21T06:23:11.787Z,13.52
2018-06-21T06:25:40.370Z,13.62
2018-06-21T06:28:08.953Z,13.69
2018-06-21T06:30:37.565Z,13.72
2018-06-21T06:33:06.324Z,13.72
2018-06-21T06:35:34.871Z,13.84
2018-06-21T06:38:03.590Z,13.94
2018-06-21T06:40:32.370Z,13.99
2018-06-21T06:43:00.864Z,14.10
2018-06-21T06:45:29.410Z,14.23
2018-06-21T06:47:57.974Z,14.34
2018-06-21T06:50:27.427Z,14.45
2018-06-21T06:52:56.011Z,14.52
2018-06-21T06:55:24.595Z,14.61
2018-06-21T06:57:53.075Z,14.61
2018-06-21T07:00:21.671Z,14.60
2018-06-21T07:02:50.256Z,14.70
2018-06-21T07:05:18.746Z,14.86
2018-06-21T07:07:47.302Z,14.97
2018-06-21T07:10:15.834Z,15.00
2018-06-21T07:12:44.469Z,15.04
2018-06-21T07:15:13.056Z,15.14
2018-06-21T07:17:41.614Z,15.20
2018-06-21T07:20:10.354Z,15.32
2018-06-21T07:22:39.030Z,15.44
2018-06-21T07:25:07.570Z,15.34
2018-06-21T07:27:36.166Z,15.24
2018-06-21T07:30:04.839Z,15.30
2018-06-21T07:32:33.889Z,15.41
2018-06-21T07:35:02.692Z,15.43
2018-06-21T07:37:31.320Z,15.49
2018-06-21T07:39:59.858Z,15.43
2018-06-21T07:42:28.432Z,15.42
2018-06-21T07:44:57.049Z,15.35
2018-06-21T07:47:25.654Z,15.41
2018-06-21T07:49:54.235Z,15.50
2018-06-21T07:52:22.923Z,15.71
2018-06-21T07:54:51.442Z,16.04
2018-06-21T07:57:19.987Z,16.07
2018-06-21T07:59:48.670Z,16.25
2018-06-21T08:02:17.358Z,16.52
2018-06-21T08:04:45.988Z,16.53
2018-06-21T08:07:14.623Z,16.36
2018-06-21T08:09:43.146Z,16.15
2018-06-21T08:12:11.789Z,16.05
2018-06-21T08:14:40.294Z,15.86
2018-06-21T08:17:08.955Z,15.78
2018-06-21T08:19:37.640Z,15.96
2018-06-21T08:22:06.323Z,15.91
2018-06-21T08:24:35.011Z,15.98
2018-06-21T08:27:04.105Z,16.14
2018-06-21T08:29:34.274Z,16.31
2018-06-21T08:32:02.831Z,16.50
2018-06-21T08:34:31.544Z,16.56
2018-06-21T08:37:00.784Z,16.61
2018-06-21T08:39:29.478Z,16.68
2018-06-21T08:41:58.161Z,16.81
2018-06-21T08:44:27.590Z,16.63
2018-06-21T08:46:56.233Z,16.46
2018-06-21T08:49:25.356Z,16.60
2018-06-21T08:51:54.031Z,16.77
2018-06-21T08:54:22.681Z,16.87
2018-06-21T08:56:51.194Z,16.98
2018-06-21T08:59:19.799Z,17.05
2018-06-21T09:01:49.512Z,17.21
2018-06-21T09:04:18.114Z,17.24
2018-06-21T09:06:46.654Z,17.34
2018-06-21T09:09:15.166Z,17.25
2018-06-21T09:11:44.798Z,17.46
2018-06-21T09:14:16.593Z,17.39
2018-06-21T09:16:45.183Z,17.31
2018-06-21T09:19:13.717Z,17.23
2018-06-21T09:21:43.366Z,17.27
2018-06-21T09:24:12.166Z,17.29
2018-06-21T09:26:40.846Z,17.26
2018-06-21T09:29:09.499Z,17.05
2018-06-21T09:31:38.181Z,16.91
2018-06-21T09:34:07.126Z,16.98
2018-06-21T09:36:38.459Z,17.00
2018-06-21T09:40:13.291Z,17.20
2018-06-21T09:42:47.097Z,17.07
2018-06-21T09:45:20.882Z,17.13
2018-06-21T09:47:54.705Z,17.23
2018-06-21T09:50:23.391Z,17.30
2018-06-21T09:52:51.975Z,17.51
2018-06-21T09:55:20.471Z,17.50
2018-06-21T09:57:49.004Z,17.61
2018-06-21T10:00:24.263Z,17.46
2018-06-21T10:02:52.859Z,17.27
2018-06-21T10:05:21.362Z,17.44
2018-06-21T10:07:50.031Z,17.35
2018-06-21T10:10:19.083Z,17.44
2018-06-21T10:12:48.342Z,17.50
2018-06-21T10:15:17.718Z,17.57
2018-06-21T10:17:46.318Z,17.48
2018-06-21T10:20:14.828Z,17.28
2018-06-21T10:22:43.347Z,17.25
2018-06-21T10:25:11.980Z,17.18
2018-06-21T10:27:40.578Z,17.21
2018-06-21T10:30:09.308Z,17.28
2018-06-21T10:32:37.950Z,16.93
2018-06-21T10:35:06.544Z,17.13
2018-06-21T10:37:35.079Z,16.96
2018-06-21T10:40:03.755Z,17.26
2018-06-21T10:42:33.005Z,17.36
2018-06-21T10:45:01.613Z,17.29
2018-06-21T10:47:30.279Z,17.34
2018-06-21T10:49:58.825Z,17.18
2018-06-21T10:52:27.438Z,17.06
2018-06-21T10:54:56.567Z,17.18
2018-06-21T10:57:25.113Z,17.59
2018-06-21T10:59:53.850Z,17.46
2018-06-21T11:02:22.534Z,17.80
2018-06-21T11:04:51.154Z,17.74
2018-06-21T11:07:20.313Z,17.47
2018-06-21T11:09:48.999Z,17.49
2018-06-21T11:12:17.527Z,17.12
2018-06-21T11:14:46.074Z,16.97
2018-06-21T11:17:15.393Z,16.75
2018-06-21T11:19:44.023Z,16.91
2018-06-21T11:22:12.685Z,17.00
2018-06-21T11:24:41.243Z,17.07
2018-06-21T11:27:09.899Z,17.49
2018-06-21T11:29:39.300Z,17.90
2018-06-21T11:32:07.885Z,17.93
2018-06-21T11:34:37.498Z,17.85
2018-06-21T11:37:06.686Z,17.84
2018-06-21T11:39:35.306Z,17.82
2018-06-21T11:42:03.867Z,18.06
2018-06-21T11:44:32.442Z,18.07
2018-06-21T11:47:01.331Z,17.98
2018-06-21T11:49:29.918Z,17.89
2018-06-21T11:51:58.537Z,17.90
2018-06-21T11:54:27.215Z,17.70
2018-06-21T11:56:55.759Z,17.40
2018-06-21T11:59:24.374Z,17.39
2018-06-21T12:01:52.987Z,17.55
2018-06-21T12:04:21.755Z,17.71
2018-06-21T12:06:50.320Z,17.86
2018-06-21T12:09:18.983Z,17.77
2018-06-21T12:11:47.583Z,17.34
2018-06-21T12:14:16.761Z,17.22
2018-06-21T12:16:45.923Z,17.36
2018-06-21T12:19:14.454Z,17.56
2018-06-21T12:21:43.125Z,17.78
2018-06-21T12:24:12.321Z,18.04
2018-06-21T12:26:41.424Z,17.84
2018-06-21T12:29:10.055Z,17.97
2018-06-21T12:31:38.686Z,17.89
2018-06-21T12:34:07.318Z,17.88
2018-06-21T12:36:36.052Z,18.03
2018-06-21T12:39:07.162Z,18.17
2018-06-21T12:41:35.782Z,18.17
2018-06-21T12:44:04.409Z,17.78
2018-06-21T12:46:33.066Z,17.62
2018-06-21T12:49:01.739Z,17.90
2018-06-21T12:51:30.358Z,18.00
2018-06-21T12:53:58.863Z,17.87
2018-06-21T12:56:27.634Z,17.91
2018-06-21T12:58:56.207Z,18.08
2018-06-21T13:01:24.864Z,18.18
2018-06-21T13:03:53.542Z,18.33
2018-06-21T13:06:22.163Z,18.32
2018-06-21T13:09:01.972Z,17.80
2018-06-21T13:11:41.919Z,17.94
2018-06-21T13:14:24.171Z,18.17
2018-06-21T13:16:52.653Z,18.28
2018-06-21T13:19:21.226Z,18.44
2018-06-21T13:21:49.914Z,18.69
2018-06-21T13:24:18.462Z,18.68
2018-06-21T13:26:49.148Z,18.54
2018-06-21T13:29:17.770Z,18.29
2018-06-21T13:31:46.272Z,18.45
2018-06-21T13:34:14.839Z,18.51
2018-06-21T13:36:43.517Z,18.32
2018-06-21T13:39:12.038Z,18.52
2018-06-21T13:41:40.579Z,18.41
2018-06-21T13:44:09.236Z,18.67
2018-06-21T13:46:37.846Z,18.33
2018-06-21T13:49:06.690Z,18.43
2018-06-21T13:51:35.242Z,18.37
2018-06-21T13:54:03.800Z,18.33
2018-06-21T13:56:32.386Z,17.87
2018-06-21T13:59:00.926Z,17.96
2018-06-21T14:01:29.590Z,18.04
2018-06-21T14:03:58.235Z,18.06
2018-06-21T14:06:26.773Z,17.90
2018-06-21T14:08:55.387Z,18.02
2018-06-21T14:11:23.983Z,18.05
2018-06-21T14:13:52.482Z,17.68
2018-06-21T14:16:21.151Z,17.66
2018-06-21T14:18:49.838Z,17.65
2018-06-21T14:21:18.436Z,17.65
2018-06-21T14:23:47.042Z,17.25
2018-06-21T14:26:15.685Z,17.13
2018-06-21T14:28:44.188Z,17.14
2018-06-21T14:31:12.786Z,16.99
2018-06-21T14:33:41.538Z,16.59
2018-06-21T14:36:10.131Z,16.78
2018-06-21T14:38:38.874Z,16.82
2018-06-21T14:41:07.886Z,16.84
2018-06-21T14:43:36.526Z,16.73
2018-06-21T14:46:05.726Z,16.61
2018-06-21T14:48:34.366Z,16.62
2018-06-21T14:51:03.165Z,16.68
2018-06-21T14:53:31.840Z,16.46
2018-06-21T14:56:00.543Z,16.29
2018-06-21T14:58:29.311Z,16.15
2018-06-21T15:00:58.146Z,16.27
2018-06-21T15:03:26.732Z,16.33
2018-06-21T15:05:55.367Z,16.24
2018-06-21T15:08:24.719Z,16.25
2018-06-21T15:10:53.294Z,16.24
2018-06-21T15:13:22.549Z,16.00
2018-06-21T15:15:52.622Z,15.95
2018-06-21T15:18:21.186Z,16.04
2018-06-21T15:20:49.837Z,16.23
2018-06-21T15:23:18.523Z,16.30
2018-06-21T15:25:47.204Z,16.34
2018-06-21T15:28:15.890Z,16.35
2018-06-21T15:30:44.677Z,16.30
2018-06-21T15:33:13.368Z,16.28
2018-06-21T15:35:42.578Z,16.05
2018-06-21T15:38:11.859Z,16.18
2018-06-21T15:40:40.852Z,16.24
2018-06-21T15:43:09.476Z,16.24
2018-06-21T15:45:38.025Z,16.39
2018-06-21T15:48:06.651Z,16.34
2018-06-21T15:50:37.060Z,16.43
2018-06-21T15:53:05.570Z,16.54
2018-06-21T15:55:34.194Z,16.60
2018-06-21T15:58:02.877Z,16.49
2018-06-21T16:00:31.563Z,16.63
2018-06-21T16:03:00.203Z,16.65
2018-06-21T16:05:28.698Z,16.62
2018-06-21T16:07:57.231Z,16.65
2018-06-21T16:10:26.611Z,16.56
2018-06-21T16:12:55.217Z,16.57
2018-06-21T16:15:24.511Z,16.48
2018-06-21T16:17:53.384Z,16.40
2018-06-21T16:20:21.906Z,16.59
2018-06-21T16:22:50.643Z,16.48
2018-06-21T16:25:19.294Z,16.81
2018-06-21T16:27:47.870Z,16.76
2018-06-21T16:30:16.501Z,16.75
2018-06-21T16:32:45.290Z,16.70
2018-06-21T16:35:14.434Z,16.83
2018-06-21T16:37:43.010Z,16.63
2018-06-21T16:40:11.631Z,16.78
2018-06-21T16:42:40.144Z,16.75
2018-06-21T16:45:08.812Z,16.76
2018-06-21T16:47:37.358Z,16.76
2018-06-21T16:50:06.087Z,16.81
2018-06-21T16:52:34.670Z,16.81
2018-06-21T16:55:03.252Z,16.91
2018-06-21T16:57:32.497Z,16.84
2018-06-21T17:00:01.149Z,16.69
2018-06-21T17:02:30.338Z,16.75
2018-06-21T17:04:58.914Z,16.56
2018-06-21T17:07:27.434Z,16.55
2018-06-21T17:09:56.081Z,16.51
2018-06-21T17:12:25.233Z,16.30
2018-06-21T17:14:54.993Z,16.29
2018-06-21T17:17:23.664Z,16.16
2018-06-21T17:19:52.256Z,16.05
2018-06-21T17:22:20.889Z,16.07
2018-06-21T17:24:49.522Z,16.06
2018-06-21T17:27:18.209Z,15.91
2018-06-21T17:29:46.845Z,15.90
2018-06-21T17:32:15.435Z,15.95
2018-06-21T17:34:44.006Z,15.82
2018-06-21T17:37:12.584Z,15.80
2018-06-21T17:39:41.150Z,15.85
2018-06-21T17:42:10.117Z,15.68
2018-06-21T17:44:38.700Z,15.67
2018-06-21T17:47:07.358Z,15.56
2018-06-21T17:49:35.909Z,15.57
2018-06-21T17:52:04.491Z,15.53
2018-06-21T17:54:33.142Z,15.51
2018-06-21T17:57:02.359Z,15.58
2018-06-21T17:59:31.118Z,15.49
2018-06-21T18:01:59.746Z,15.47
2018-06-21T18:04:28.309Z,15.45
2018-06-21T18:06:56.968Z,15.28
2018-06-21T18:09:25.766Z,15.25
2018-06-21T18:11:54.563Z,15.31
2018-06-21T18:14:23.166Z,15.22
2018-06-21T18:16:51.734Z,15.26
2018-06-21T18:19:21.010Z,15.30
2018-06-21T18:21:49.695Z,15.16
2018-06-21T18:24:18.273Z,15.17
2018-06-21T18:26:46.964Z,15.13
2018-06-21T18:29:16.201Z,15.09
2018-06-21T18:31:44.684Z,15.02
2018-06-21T18:34:13.326Z,15.04
2018-06-21T18:36:42.625Z,14.97
2018-06-21T18:39:12.646Z,14.95
2018-06-21T18:41:41.942Z,14.99
2018-06-21T18:44:11.477Z,14.98
2018-06-21T18:46:40.746Z,15.00
2018-06-21T18:49:09.431Z,14.99
2018-06-21T18:51:39.417Z,14.98
2018-06-21T18:54:08.087Z,14.89
2018-06-21T18:56:37.754Z,14.88
2018-06-21T18:59:06.466Z,14.81
2018-06-21T19:01:35.623Z,14.86
2018-06-21T19:04:04.312Z,14.71
2018-06-21T19:07:40.925Z,14.63
2018-06-21T19:10:14.879Z,14.55
2018-06-21T19:12:43.583Z,14.55
2018-06-21T19:15:12.806Z,14.51
2018-06-21T19:17:41.408Z,14.47
2018-06-21T19:20:10.147Z,14.38
2018-06-21T19:22:38.838Z,14.36
2018-06-21T19:25:07.344Z,14.26
2018-06-21T19:27:35.949Z,14.26
2018-06-21T19:30:06.834Z,14.26
2018-06-21T19:32:35.332Z,14.16
2018-06-21T19:35:04.102Z,14.20
2018-06-21T19:37:33.323Z,14.20
2018-06-21T19:40:01.930Z,14.14
2018-06-21T19:42:30.567Z,14.09
2018-06-21T19:44:59.062Z,14.01
2018-06-21T19:47:27.658Z,13.92
2018-06-21T19:49:56.311Z,13.80
2018-06-21T19:52:25.043Z,13.75
2018-06-21T19:54:53.687Z,13.68
2018-06-21T19:57:22.884Z,13.62
2018-06-21T19:59:51.418Z,13.58
2018-06-21T20:02:19.999Z,13.45
2018-06-21T20:04:48.761Z,13.39
2018-06-21T20:07:17.990Z,13.30
2018-06-21T20:09:47.393Z,13.26
2018-06-21T20:12:16.123Z,13.23
2018-06-21T20:14:45.321Z,13.06
2018-06-21T20:17:14.007Z,12.93
2018-06-21T20:19:47.758Z,12.90
2018-06-21T20:22:16.949Z,12.85
2018-06-21T20:24:45.527Z,12.76
2018-06-21T20:27:14.172Z,12.71
2018-06-21T20:29:42.756Z,12.66
2018-06-21T20:32:11.340Z,12.54
2018-06-21T20:34:40.632Z,12.48
2018-06-21T20:37:13.320Z,12.51
2018-06-21T20:39:41.947Z,12.38
2018-06-21T20:42:10.531Z,12.38
2018-06-21T20:44:39.170Z,12.31
2018-06-21T20:47:08.251Z,12.18
2018-06-21T20:49:36.894Z,12.13
2018-06-21T20:52:09.248Z,12.12
2018-06-21T20:54:37.883Z,12.13
2018-06-21T20:57:07.203Z,12.06
2018-06-21T20:59:36.384Z,12.07
2018-06-21T21:02:05.044Z,12.00
2018-06-21T21:04:43.396Z,11.97
2018-06-21T21:07:12.954Z,11.90
2018-06-21T21:09:42.185Z,11.87
2018-06-21T21:12:10.719Z,11.80
2018-06-21T21:14:39.414Z,11.77
2018-06-21T21:17:08.119Z,11.74
2018-06-21T21:19:36.736Z,11.71
2018-06-21T21:22:05.270Z,11.64
2018-06-21T21:24:33.838Z,11.61
2018-06-21T21:27:02.487Z,11.56
2018-06-21T21:29:31.173Z,11.50
2018-06-21T21:32:00.486Z,11.47
2018-06-21T21:34:29.154Z,11.46
2018-06-21T21:36:57.754Z,11.46
2018-06-21T21:39:26.423Z,11.47
2018-06-21T21:41:55.109Z,11.48
2018-06-21T21:44:23.695Z,11.50
2018-06-21T21:46:52.191Z,11.51
2018-06-21T21:49:20.814Z,11.43
2018-06-21T21:51:49.748Z,11.48
2018-06-21T21:54:18.268Z,11.45
2018-06-21T21:56:46.810Z,11.46
2018-06-21T21:59:15.442Z,11.46
2018-06-21T22:01:43.979Z,11.47
2018-06-21T22:04:12.641Z,11.47
2018-06-21T22:06:41.287Z,11.49
2018-06-21T22:09:10.345Z,11.54
2018-06-21T22:11:39.333Z,11.57
2018-06-21T22:14:08.018Z,11.56
2018-06-21T22:16:37.032Z,11.51
2018-06-21T22:19:05.697Z,11.51
2018-06-21T22:21:34.272Z,11.50
2018-06-21T22:24:02.966Z,11.46
2018-06-21T22:26:31.518Z,11.44
2018-06-21T22:29:00.334Z,11.33
2018-06-21T22:31:28.866Z,11.20
2018-06-21T22:33:57.460Z,11.17
2018-06-21T22:36:25.981Z,11.08
2018-06-21T22:38:54.665Z,11.03
2018-06-21T22:41:23.206Z,10.98
2018-06-21T22:43:51.774Z,11.00
2018-06-21T22:46:20.379Z,10.94
2018-06-21T22:48:48.946Z,10.96
2018-06-21T22:51:32.378Z,10.96
2018-06-21T22:54:01.013Z,10.93
2018-06-21T22:56:29.494Z,10.91
2018-06-21T22:58:58.384Z,10.87
2018-06-21T23:01:26.910Z,10.86
2018-06-21T23:03:55.754Z,10.85
2018-06-21T23:06:24.410Z,10.82
2018-06-21T23:08:52.988Z,10.82
2018-06-21T23:11:21.705Z,10.81
2018-06-21T23:13:50.216Z,10.75
2018-06-21T23:16:18.774Z,10.71
2018-06-21T23:18:58.412Z,10.66
2018-06-21T23:21:26.995Z,10.62
2018-06-21T23:23:56.507Z,10.57
2018-06-21T23:26:25.192Z,10.56
2018-06-21T23:28:53.820Z,10.53
2018-06-21T23:31:22.450Z,10.50
2018-06-21T23:33:51.093Z,10.45
2018-06-21T23:36:19.719Z,10.44
2018-06-21T23:38:48.302Z,10.41
2018-06-21T23:41:16.885Z,10.39
2018-06-21T23:43:45.471Z,10.37
2018-06-21T23:46:14.498Z,10.37
2018-06-21T23:48:43.719Z,10.38
2018-06-21T23:51:12.342Z,10.36
2018-06-21T23:53:40.925Z,10.34
2018-06-21T23:56:09.456Z,10.32
2018-06-21T23:58:38.750Z,10.30
